| Date | Time | Temp. (oF) | Dew Point (oF) | Rel. Hum. (%) | Press. (in.) | Wind Dir. | Wind Speed (mph) | Hourly Rainfall (in.) |
|
|---|---|---|---|---|---|---|---|---|---|
| 1 | 06/16 | 00:00 | 76 | 72 | 90 | 30.00 | E | 1 | 0.00 |
| 2 | 06/15 | 23:00 | 77 | 73 | 88 | 30.01 | ENE | 1 | 0.00 |
| 3 | 06/15 | 22:00 | 78 | 73 | 87 | 30.01 | ENE | 2 | 0.00 |
| 4 | 06/15 | 21:00 | 79 | 73 | 84 | 29.99 | ESE | 3 | 0.00 |
| 5 | 06/15 | 20:00 | 81 | 73 | 78 | 29.99 | SSE | 3 | 0.00 |
| 6 | 06/15 | 19:00 | 82 | 74 | 78 | 29.98 | ESE | 4 | 0.00 |
| 7 | 06/15 | 18:00 | 82 | 75 | 82 | 29.97 | ESE | 4 | 0.00 |
| 8 | 06/15 | 17:00 | 80 | 76 | 89 | 30.01 | SE | 2 | 0.01 |
| 9 | 06/15 | 16:00 | 84 | 74 | 74 | 30.01 | SSE | 4 | 0.00 |
| 10 | 06/15 | 15:00 | 82 | 77 | 86 | 30.03 | SSE | 6 | 0.02 |
| 11 | 06/15 | 14:00 | 81 | 74 | 82 | 30.05 | SE | 7 | 0.00 |
| 12 | 06/15 | 13:00 | 84 | 73 | 72 | 30.06 | S | 3 | 0.00 |
| 13 | 06/15 | 12:00 | 80 | 73 | 80 | 30.08 | NE | 7 | 0.00 |
| 14 | 06/15 | 11:00 | 79 | 73 | 83 | 30.09 | NNE | 2 | 0.00 |
| 15 | 06/15 | 10:00 | 76 | 72 | 89 | 30.09 | NE | 1 | 0.00 |
| 16 | 06/15 | 09:00 | 75 | 72 | 93 | 30.09 | NE | 9 | 0.00 |
| 17 | 06/15 | 08:00 | 73 | 71 | 96 | 30.09 | NNE | 5 | 0.00 |
| 18 | 06/15 | 07:00 | 73 | 71 | 96 | 30.08 | NE | 5 | 0.00 |
| 19 | 06/15 | 06:00 | 73 | 71 | 95 | 30.09 | E | 3 | 0.00 |
| 20 | 06/15 | 05:00 | 73 | 71 | 95 | 30.08 | NNE | 1 | 0.00 |
| 21 | 06/15 | 04:00 | 74 | 72 | 95 | 30.08 | E | 1 | 0.00 |
| 22 | 06/15 | 03:00 | 73 | 70 | 93 | 30.10 | SE | 0 | 0.00 |
| 23 | 06/15 | 02:00 | 74 | 71 | 91 | 30.11 | NE | 3 | 0.00 |
| 24 | 06/15 | 01:00 | 75 | 71 | 90 | 30.10 | ESE | 0 | 0.00 |